sensor_id;sensor_type;location;lat;lon;timestamp;P1;durP1;ratioP1;P2;durP2;ratioP2
239;SDS011;104;53.590;10.004;2023-07-20T00:00:02;27.40;;;23.63;;
239;SDS011;104;53.590;10.004;2023-07-20T00:02:31;23.37;;;10.57;;
239;SDS011;104;53.590;10.004;2023-07-20T00:04:59;18.23;;;7.87;;
239;SDS011;104;53.590;10.004;2023-07-20T00:07:27;15.03;;;6.83;;
239;SDS011;104;53.590;10.004;2023-07-20T00:09:55;20.50;;;9.27;;
239;SDS011;104;53.590;10.004;2023-07-20T00:12:22;13.70;;;7.20;;
239;SDS011;104;53.590;10.004;2023-07-20T00:14:50;13.87;;;7.67;;
239;SDS011;104;53.590;10.004;2023-07-20T00:17:18;20.87;;;9.63;;
239;SDS011;104;53.590;10.004;2023-07-20T00:19:46;17.30;;;8.10;;
239;SDS011;104;53.590;10.004;2023-07-20T00:22:15;13.10;;;7.10;;
239;SDS011;104;53.590;10.004;2023-07-20T00:24:42;14.93;;;6.83;;
239;SDS011;104;53.590;10.004;2023-07-20T00:27:10;13.17;;;7.47;;
239;SDS011;104;53.590;10.004;2023-07-20T00:29:37;14.53;;;7.67;;
239;SDS011;104;53.590;10.004;2023-07-20T00:32:05;16.50;;;8.53;;
239;SDS011;104;53.590;10.004;2023-07-20T00:34:32;17.20;;;7.60;;
239;SDS011;104;53.590;10.004;2023-07-20T00:36:59;19.17;;;7.70;;
239;SDS011;104;53.590;10.004;2023-07-20T00:39:28;16.97;;;7.90;;
239;SDS011;104;53.590;10.004;2023-07-20T00:41:56;27.03;;;8.50;;
239;SDS011;104;53.590;10.004;2023-07-20T00:44:23;14.83;;;8.53;;
239;SDS011;104;53.590;10.004;2023-07-20T00:46:51;19.90;;;8.27;;
239;SDS011;104;53.590;10.004;2023-07-20T00:49:18;12.60;;;7.33;;
239;SDS011;104;53.590;10.004;2023-07-20T00:51:47;18.03;;;8.63;;
239;SDS011;104;53.590;10.004;2023-07-20T00:54:14;18.50;;;8.40;;
239;SDS011;104;53.590;10.004;2023-07-20T00:56:44;13.93;;;7.77;;
239;SDS011;104;53.590;10.004;2023-07-20T00:59:11;18.30;;;8.00;;
239;SDS011;104;53.590;10.004;2023-07-20T01:01:38;18.73;;;7.73;;
239;SDS011;104;53.590;10.004;2023-07-20T01:04:06;20.23;;;7.90;;
239;SDS011;104;53.590;10.004;2023-07-20T01:06:36;19.93;;;7.90;;
239;SDS011;104;53.590;10.004;2023-07-20T01:09:07;20.30;;;8.57;;
239;SDS011;104;53.590;10.004;2023-07-20T01:11:37;12.90;;;7.10;;
239;SDS011;104;53.590;10.004;2023-07-20T01:14:07;15.13;;;7.67;;
239;SDS011;104;53.590;10.004;2023-07-20T01:16:34;18.20;;;8.13;;
239;SDS011;104;53.590;10.004;2023-07-20T01:19:02;14.53;;;7.57;;
239;SDS011;104;53.590;10.004;2023-07-20T01:21:31;13.03;;;7.67;;
239;SDS011;104;53.590;10.004;2023-07-20T01:24:25;17.63;;;8.80;;
239;SDS011;104;53.590;10.004;2023-07-20T01:27:01;26.03;;;8.23;;
239;SDS011;104;53.590;10.004;2023-07-20T01:29:39;14.33;;;8.13;;
239;SDS011;104;53.590;10.004;2023-07-20T01:32:13;14.37;;;7.60;;
239;SDS011;104;53.590;10.004;2023-07-20T01:34:42;35.40;;;11.23;;
239;SDS011;104;53.590;10.004;2023-07-20T01:37:12;18.10;;;8.20;;
239;SDS011;104;53.590;10.004;2023-07-20T01:39:39;15.03;;;8.17;;
239;SDS011;104;53.590;10.004;2023-07-20T01:42:07;27.13;;;9.00;;
239;SDS011;104;53.590;10.004;2023-07-20T01:44:36;25.40;;;10.37;;
239;SDS011;104;53.590;10.004;2023-07-20T01:47:04;15.77;;;8.97;;
239;SDS011;104;53.590;10.004;2023-07-20T01:49:33;23.33;;;10.43;;
239;SDS011;104;53.590;10.004;2023-07-20T01:52:00;15.47;;;9.90;;
239;SDS011;104;53.590;10.004;2023-07-20T01:54:28;25.33;;;21.50;;
239;SDS011;104;53.590;10.004;2023-07-20T01:56:55;58.37;;;55.50;;
239;SDS011;104;53.590;10.004;2023-07-20T01:59:23;67.73;;;51.93;;
239;SDS011;104;53.590;10.004;2023-07-20T02:01:50;72.90;;;69.37;;
239;SDS011;104;53.590;10.004;2023-07-20T02:04:17;43.13;;;39.57;;
239;SDS011;104;53.590;10.004;2023-07-20T02:06:46;49.70;;;38.77;;
239;SDS011;104;53.590;10.004;2023-07-20T02:09:13;49.23;;;46.83;;
239;SDS011;104;53.590;10.004;2023-07-20T02:11:41;35.80;;;30.03;;
239;SDS011;104;53.590;10.004;2023-07-20T02:14:08;31.43;;;29.90;;
239;SDS011;104;53.590;10.004;2023-07-20T02:16:36;35.43;;;33.70;;
239;SDS011;104;53.590;10.004;2023-07-20T02:19:03;47.50;;;43.50;;
239;SDS011;104;53.590;10.004;2023-07-20T02:21:32;36.07;;;27.60;;
239;SDS011;104;53.590;10.004;2023-07-20T02:24:01;39.20;;;36.60;;
239;SDS011;104;53.590;10.004;2023-07-20T02:26:28;54.03;;;51.43;;
239;SDS011;104;53.590;10.004;2023-07-20T02:28:56;38.77;;;36.87;;
239;SDS011;104;53.590;10.004;2023-07-20T02:31:23;38.73;;;36.83;;
239;SDS011;104;53.590;10.004;2023-07-20T02:33:50;38.40;;;36.50;;
239;SDS011;104;53.590;10.004;2023-07-20T02:36:18;38.63;;;31.50;;
239;SDS011;104;53.590;10.004;2023-07-20T02:38:45;35.27;;;28.60;;
239;SDS011;104;53.590;10.004;2023-07-20T02:41:14;46.43;;;41.30;;
239;SDS011;104;53.590;10.004;2023-07-20T02:43:42;52.70;;;41.63;;
239;SDS011;104;53.590;10.004;2023-07-20T02:46:09;21.57;;;17.17;;
239;SDS011;104;53.590;10.004;2023-07-20T02:48:37;22.93;;;21.80;;
239;SDS011;104;53.590;10.004;2023-07-20T02:51:04;44.27;;;26.60;;
239;SDS011;104;53.590;10.004;2023-07-20T02:53:32;32.97;;;24.83;;
239;SDS011;104;53.590;10.004;2023-07-20T02:56:00;31.73;;;18.70;;
239;SDS011;104;53.590;10.004;2023-07-20T02:58:29;27.50;;;21.50;;
239;SDS011;104;53.590;10.004;2023-07-20T03:00:56;19.73;;;16.37;;
239;SDS011;104;53.590;10.004;2023-07-20T03:03:23;26.83;;;18.70;;
239;SDS011;104;53.590;10.004;2023-07-20T03:05:50;26.10;;;15.80;;
239;SDS011;104;53.590;10.004;2023-07-20T03:08:19;22.83;;;14.13;;
239;SDS011;104;53.590;10.004;2023-07-20T03:10:46;26.37;;;19.53;;
239;SDS011;104;53.590;10.004;2023-07-20T03:13:14;21.83;;;14.70;;
239;SDS011;104;53.590;10.004;2023-07-20T03:15:43;23.90;;;14.60;;
239;SDS011;104;53.590;10.004;2023-07-20T03:18:10;22.83;;;13.97;;
239;SDS011;104;53.590;10.004;2023-07-20T03:20:41;18.97;;;12.93;;
239;SDS011;104;53.590;10.004;2023-07-20T03:23:09;16.53;;;14.53;;
239;SDS011;104;53.590;10.004;2023-07-20T03:25:36;17.23;;;15.37;;
239;SDS011;104;53.590;10.004;2023-07-20T03:28:04;17.60;;;12.80;;
239;SDS011;104;53.590;10.004;2023-07-20T03:30:36;28.23;;;15.00;;
239;SDS011;104;53.590;10.004;2023-07-20T03:33:05;15.00;;;10.23;;
239;SDS011;104;53.590;10.004;2023-07-20T03:35:32;26.43;;;13.20;;
239;SDS011;104;53.590;10.004;2023-07-20T03:37:59;22.03;;;12.70;;
239;SDS011;104;53.590;10.004;2023-07-20T03:40:27;21.50;;;11.10;;
239;SDS011;104;53.590;10.004;2023-07-20T03:42:54;17.27;;;9.97;;
239;SDS011;104;53.590;10.004;2023-07-20T03:45:22;23.10;;;12.53;;
239;SDS011;104;53.590;10.004;2023-07-20T03:47:49;23.77;;;12.97;;
239;SDS011;104;53.590;10.004;2023-07-20T03:50:19;26.83;;;13.30;;
239;SDS011;104;53.590;10.004;2023-07-20T03:52:46;21.03;;;13.53;;
239;SDS011;104;53.590;10.004;2023-07-20T03:55:14;15.23;;;11.20;;
239;SDS011;104;53.590;10.004;2023-07-20T03:57:41;23.77;;;11.80;;
239;SDS011;104;53.590;10.004;2023-07-20T04:00:09;14.17;;;8.30;;
239;SDS011;104;53.590;10.004;2023-07-20T04:02:37;15.00;;;9.00;;
239;SDS011;104;53.590;10.004;2023-07-20T04:05:05;21.43;;;10.30;;
239;SDS011;104;53.590;10.004;2023-07-20T04:07:36;17.03;;;9.10;;
239;SDS011;104;53.590;10.004;2023-07-20T04:10:03;19.17;;;9.17;;
239;SDS011;104;53.590;10.004;2023-07-20T04:12:30;14.67;;;8.10;;
239;SDS011;104;53.590;10.004;2023-07-20T04:14:57;14.50;;;7.80;;
239;SDS011;104;53.590;10.004;2023-07-20T04:17:25;16.80;;;8.80;;
239;SDS011;104;53.590;10.004;2023-07-20T04:19:53;30.90;;;11.20;;
239;SDS011;104;53.590;10.004;2023-07-20T04:22:20;15.60;;;7.37;;
239;SDS011;104;53.590;10.004;2023-07-20T04:24:49;18.20;;;8.70;;
239;SDS011;104;53.590;10.004;2023-07-20T04:27:16;13.20;;;8.23;;
239;SDS011;104;53.590;10.004;2023-07-20T04:29:44;32.53;;;8.63;;
239;SDS011;104;53.590;10.004;2023-07-20T04:32:11;23.13;;;8.50;;
239;SDS011;104;53.590;10.004;2023-07-20T04:34:38;13.57;;;7.40;;
239;SDS011;104;53.590;10.004;2023-07-20T04:37:06;16.33;;;7.90;;
239;SDS011;104;53.590;10.004;2023-07-20T04:39:33;15.57;;;8.10;;
239;SDS011;104;53.590;10.004;2023-07-20T04:42:02;18.70;;;7.77;;
239;SDS011;104;53.590;10.004;2023-07-20T04:44:29;17.97;;;8.83;;
239;SDS011;104;53.590;10.004;2023-07-20T04:46:57;15.87;;;7.70;;
239;SDS011;104;53.590;10.004;2023-07-20T04:49:24;20.13;;;9.00;;
239;SDS011;104;53.590;10.004;2023-07-20T04:51:51;18.43;;;7.03;;
239;SDS011;104;53.590;10.004;2023-07-20T04:54:19;23.47;;;10.63;;
239;SDS011;104;53.590;10.004;2023-07-20T04:56:46;16.90;;;8.20;;
239;SDS011;104;53.590;10.004;2023-07-20T04:59:15;16.90;;;7.10;;
239;SDS011;104;53.590;10.004;2023-07-20T05:01:43;12.13;;;6.57;;
239;SDS011;104;53.590;10.004;2023-07-20T05:04:10;18.90;;;8.23;;
239;SDS011;104;53.590;10.004;2023-07-20T05:06:38;19.90;;;7.90;;
239;SDS011;104;53.590;10.004;2023-07-20T05:09:05;14.67;;;7.50;;
239;SDS011;104;53.590;10.004;2023-07-20T05:11:33;17.40;;;8.07;;
239;SDS011;104;53.590;10.004;2023-07-20T05:14:00;11.13;;;6.27;;
239;SDS011;104;53.590;10.004;2023-07-20T05:16:29;14.73;;;7.87;;
239;SDS011;104;53.590;10.004;2023-07-20T05:18:56;16.87;;;7.57;;
239;SDS011;104;53.590;10.004;2023-07-20T05:21:24;26.33;;;9.93;;
239;SDS011;104;53.590;10.004;2023-07-20T05:23:51;15.00;;;6.50;;
239;SDS011;104;53.590;10.004;2023-07-20T05:26:18;21.20;;;8.60;;
239;SDS011;104;53.590;10.004;2023-07-20T05:28:46;16.90;;;8.00;;
239;SDS011;104;53.590;10.004;2023-07-20T05:31:13;20.60;;;8.23;;
239;SDS011;104;53.590;10.004;2023-07-20T05:33:42;28.07;;;11.13;;
239;SDS011;104;53.590;10.004;2023-07-20T05:36:10;14.80;;;7.80;;
239;SDS011;104;53.590;10.004;2023-07-20T05:38:37;19.17;;;9.60;;
239;SDS011;104;53.590;10.004;2023-07-20T05:41:04;18.80;;;8.50;;
239;SDS011;104;53.590;10.004;2023-07-20T05:43:35;29.17;;;11.20;;
239;SDS011;104;53.590;10.004;2023-07-20T05:46:05;22.00;;;8.97;;
239;SDS011;104;53.590;10.004;2023-07-20T05:48:33;26.57;;;9.50;;
239;SDS011;104;53.590;10.004;2023-07-20T05:51:02;19.77;;;8.50;;
239;SDS011;104;53.590;10.004;2023-07-20T05:53:30;27.73;;;9.77;;
239;SDS011;104;53.590;10.004;2023-07-20T05:55:57;26.17;;;10.10;;
239;SDS011;104;53.590;10.004;2023-07-20T05:58:24;22.93;;;9.30;;
239;SDS011;104;53.590;10.004;2023-07-20T06:00:53;34.60;;;11.13;;
239;SDS011;104;53.590;10.004;2023-07-20T06:03:20;33.43;;;12.93;;
239;SDS011;104;53.590;10.004;2023-07-20T06:05:48;17.77;;;9.27;;
239;SDS011;104;53.590;10.004;2023-07-20T06:08:18;19.63;;;10.20;;
239;SDS011;104;53.590;10.004;2023-07-20T06:10:49;28.73;;;12.63;;
239;SDS011;104;53.590;10.004;2023-07-20T06:13:17;29.27;;;12.80;;
239;SDS011;104;53.590;10.004;2023-07-20T06:15:44;25.97;;;12.73;;
239;SDS011;104;53.590;10.004;2023-07-20T06:18:12;22.97;;;11.63;;
239;SDS011;104;53.590;10.004;2023-07-20T06:20:39;20.37;;;9.70;;
239;SDS011;104;53.590;10.004;2023-07-20T06:23:07;31.93;;;11.90;;
239;SDS011;104;53.590;10.004;2023-07-20T06:25:36;22.40;;;10.13;;
239;SDS011;104;53.590;10.004;2023-07-20T06:28:04;23.00;;;9.93;;
239;SDS011;104;53.590;10.004;2023-07-20T06:30:33;18.10;;;9.13;;
239;SDS011;104;53.590;10.004;2023-07-20T06:33:01;26.60;;;9.70;;
239;SDS011;104;53.590;10.004;2023-07-20T06:35:28;16.93;;;9.77;;
239;SDS011;104;53.590;10.004;2023-07-20T06:37:55;15.40;;;8.93;;
239;SDS011;104;53.590;10.004;2023-07-20T06:40:25;21.50;;;9.70;;
239;SDS011;104;53.590;10.004;2023-07-20T06:42:54;14.03;;;8.63;;
239;SDS011;104;53.590;10.004;2023-07-20T06:45:21;26.93;;;10.50;;
239;SDS011;104;53.590;10.004;2023-07-20T06:47:51;31.53;;;13.53;;
239;SDS011;104;53.590;10.004;2023-07-20T06:50:19;28.23;;;10.43;;
239;SDS011;104;53.590;10.004;2023-07-20T06:52:47;28.10;;;10.90;;
239;SDS011;104;53.590;10.004;2023-07-20T06:55:14;20.03;;;10.67;;
239;SDS011;104;53.590;10.004;2023-07-20T06:57:41;35.53;;;12.03;;
239;SDS011;104;53.590;10.004;2023-07-20T07:00:11;21.90;;;10.07;;
239;SDS011;104;53.590;10.004;2023-07-20T07:02:38;16.93;;;9.03;;
239;SDS011;104;53.590;10.004;2023-07-20T07:05:08;18.17;;;10.03;;
239;SDS011;104;53.590;10.004;2023-07-20T07:07:35;26.67;;;9.53;;
239;SDS011;104;53.590;10.004;2023-07-20T07:10:03;22.70;;;10.00;;
239;SDS011;104;53.590;10.004;2023-07-20T07:12:30;19.33;;;8.83;;
239;SDS011;104;53.590;10.004;2023-07-20T07:14:58;20.43;;;9.27;;
239;SDS011;104;53.590;10.004;2023-07-20T07:17:26;22.53;;;9.33;;
239;SDS011;104;53.590;10.004;2023-07-20T07:19:54;19.00;;;9.57;;
239;SDS011;104;53.590;10.004;2023-07-20T07:22:21;25.83;;;10.23;;
239;SDS011;104;53.590;10.004;2023-07-20T07:24:49;18.13;;;9.50;;
239;SDS011;104;53.590;10.004;2023-07-20T07:27:16;21.10;;;9.00;;
239;SDS011;104;53.590;10.004;2023-07-20T07:29:44;18.60;;;8.23;;
239;SDS011;104;53.590;10.004;2023-07-20T07:32:12;22.33;;;10.37;;
239;SDS011;104;53.590;10.004;2023-07-20T07:34:40;18.20;;;9.63;;
239;SDS011;104;53.590;10.004;2023-07-20T07:37:08;32.23;;;12.83;;
239;SDS011;104;53.590;10.004;2023-07-20T07:39:35;42.87;;;14.13;;
239;SDS011;104;53.590;10.004;2023-07-20T07:42:03;34.17;;;11.57;;
239;SDS011;104;53.590;10.004;2023-07-20T07:47:34;24.33;;;9.73;;
239;SDS011;104;53.590;10.004;2023-07-20T07:50:03;10.60;;;7.50;;
239;SDS011;104;53.590;10.004;2023-07-20T07:52:30;31.00;;;10.40;;
239;SDS011;104;53.590;10.004;2023-07-20T07:54:58;21.63;;;10.07;;
239;SDS011;104;53.590;10.004;2023-07-20T07:57:25;19.30;;;9.90;;
239;SDS011;104;53.590;10.004;2023-07-20T07:59:53;13.90;;;7.33;;
239;SDS011;104;53.590;10.004;2023-07-20T08:02:20;20.80;;;10.93;;
239;SDS011;104;53.590;10.004;2023-07-20T08:04:47;12.43;;;8.17;;
239;SDS011;104;53.590;10.004;2023-07-20T08:07:19;21.80;;;9.10;;
239;SDS011;104;53.590;10.004;2023-07-20T08:09:47;20.07;;;9.40;;
239;SDS011;104;53.590;10.004;2023-07-20T08:12:14;22.03;;;9.73;;
239;SDS011;104;53.590;10.004;2023-07-20T08:14:43;23.40;;;10.93;;
239;SDS011;104;53.590;10.004;2023-07-20T08:17:11;33.33;;;11.10;;
239;SDS011;104;53.590;10.004;2023-07-20T08:19:38;22.20;;;9.17;;
239;SDS011;104;53.590;10.004;2023-07-20T08:22:06;23.40;;;10.30;;
239;SDS011;104;53.590;10.004;2023-07-20T08:24:38;14.87;;;8.93;;
239;SDS011;104;53.590;10.004;2023-07-20T08:27:05;20.50;;;8.50;;
239;SDS011;104;53.590;10.004;2023-07-20T08:29:33;17.83;;;8.00;;
239;SDS011;104;53.590;10.004;2023-07-20T08:32:01;19.60;;;8.17;;
239;SDS011;104;53.590;10.004;2023-07-20T08:34:29;19.80;;;7.10;;
239;SDS011;104;53.590;10.004;2023-07-20T08:36:56;20.43;;;8.50;;
239;SDS011;104;53.590;10.004;2023-07-20T08:39:24;27.83;;;11.70;;
239;SDS011;104;53.590;10.004;2023-07-20T08:41:52;17.77;;;8.60;;
239;SDS011;104;53.590;10.004;2023-07-20T08:44:22;20.17;;;7.80;;
239;SDS011;104;53.590;10.004;2023-07-20T08:46:49;23.23;;;9.60;;
239;SDS011;104;53.590;10.004;2023-07-20T08:49:17;22.03;;;8.70;;
239;SDS011;104;53.590;10.004;2023-07-20T08:51:46;23.50;;;9.40;;
239;SDS011;104;53.590;10.004;2023-07-20T08:54:13;14.10;;;8.67;;
239;SDS011;104;53.590;10.004;2023-07-20T08:56:41;33.53;;;11.77;;
239;SDS011;104;53.590;10.004;2023-07-20T08:59:11;19.90;;;9.63;;
239;SDS011;104;53.590;10.004;2023-07-20T09:01:39;23.00;;;9.50;;
239;SDS011;104;53.590;10.004;2023-07-20T09:04:07;17.53;;;10.30;;
239;SDS011;104;53.590;10.004;2023-07-20T09:06:35;22.30;;;10.87;;
239;SDS011;104;53.590;10.004;2023-07-20T09:09:02;24.27;;;9.93;;
239;SDS011;104;53.590;10.004;2023-07-20T09:11:41;22.50;;;10.73;;
239;SDS011;104;53.590;10.004;2023-07-20T09:14:14;27.00;;;13.93;;
239;SDS011;104;53.590;10.004;2023-07-20T09:16:47;17.87;;;7.87;;
239;SDS011;104;53.590;10.004;2023-07-20T09:19:15;27.27;;;8.97;;
239;SDS011;104;53.590;10.004;2023-07-20T09:21:44;24.10;;;13.33;;
239;SDS011;104;53.590;10.004;2023-07-20T09:24:12;18.30;;;14.77;;
239;SDS011;104;53.590;10.004;2023-07-20T09:26:40;21.30;;;13.47;;
239;SDS011;104;53.590;10.004;2023-07-20T09:29:08;28.63;;;17.10;;
239;SDS011;104;53.590;10.004;2023-07-20T09:31:37;30.97;;;18.03;;
239;SDS011;104;53.590;10.004;2023-07-20T09:34:05;22.73;;;16.13;;
239;SDS011;104;53.590;10.004;2023-07-20T09:36:33;25.37;;;14.80;;
239;SDS011;104;53.590;10.004;2023-07-20T09:39:01;22.73;;;14.53;;
239;SDS011;104;53.590;10.004;2023-07-20T09:41:30;30.03;;;17.07;;
239;SDS011;104;53.590;10.004;2023-07-20T09:43:57;26.43;;;17.03;;
239;SDS011;104;53.590;10.004;2023-07-20T09:46:24;39.77;;;21.70;;
239;SDS011;104;53.590;10.004;2023-07-20T09:48:53;28.33;;;21.13;;
239;SDS011;104;53.590;10.004;2023-07-20T09:51:21;38.10;;;36.23;;
239;SDS011;104;53.590;10.004;2023-07-20T09:53:49;34.63;;;23.07;;
239;SDS011;104;53.590;10.004;2023-07-20T09:56:16;22.77;;;21.20;;
239;SDS011;104;53.590;10.004;2023-07-20T09:58:44;27.90;;;25.23;;
239;SDS011;104;53.590;10.004;2023-07-20T10:01:12;46.07;;;39.73;;
239;SDS011;104;53.590;10.004;2023-07-20T10:03:41;48.03;;;36.50;;
239;SDS011;104;53.590;10.004;2023-07-20T10:06:12;39.30;;;35.47;;
239;SDS011;104;53.590;10.004;2023-07-20T10:08:41;41.37;;;37.03;;
239;SDS011;104;53.590;10.004;2023-07-20T10:11:09;47.93;;;34.93;;
239;SDS011;104;53.590;10.004;2023-07-20T10:13:39;35.83;;;25.17;;
239;SDS011;104;53.590;10.004;2023-07-20T10:16:10;32.87;;;19.23;;
239;SDS011;104;53.590;10.004;2023-07-20T10:18:38;38.03;;;21.83;;
239;SDS011;104;53.590;10.004;2023-07-20T10:21:09;32.03;;;19.93;;
239;SDS011;104;53.590;10.004;2023-07-20T10:23:38;37.97;;;28.00;;
239;SDS011;104;53.590;10.004;2023-07-20T10:26:06;34.30;;;27.20;;
239;SDS011;104;53.590;10.004;2023-07-20T10:28:33;44.57;;;29.10;;
239;SDS011;104;53.590;10.004;2023-07-20T10:31:03;25.00;;;17.77;;
239;SDS011;104;53.590;10.004;2023-07-20T10:33:33;23.23;;;16.33;;
239;SDS011;104;53.590;10.004;2023-07-20T10:36:01;17.37;;;10.93;;
239;SDS011;104;53.590;10.004;2023-07-20T10:38:41;50.20;;;21.50;;
239;SDS011;104;53.590;10.004;2023-07-20T10:41:15;21.80;;;15.00;;
239;SDS011;104;53.590;10.004;2023-07-20T10:43:43;22.03;;;17.00;;
239;SDS011;104;53.590;10.004;2023-07-20T10:46:11;33.87;;;22.80;;
239;SDS011;104;53.590;10.004;2023-07-20T10:51:20;30.33;;;22.43;;
239;SDS011;104;53.590;10.004;2023-07-20T10:53:49;24.20;;;20.23;;
239;SDS011;104;53.590;10.004;2023-07-20T10:56:19;34.40;;;14.43;;
239;SDS011;104;53.590;10.004;2023-07-20T10:58:46;27.47;;;17.60;;
239;SDS011;104;53.590;10.004;2023-07-20T11:01:14;29.60;;;15.97;;
239;SDS011;104;53.590;10.004;2023-07-20T11:03:42;24.40;;;17.03;;
239;SDS011;104;53.590;10.004;2023-07-20T11:06:29;27.97;;;19.27;;
239;SDS011;104;53.590;10.004;2023-07-20T11:09:03;26.80;;;17.27;;
239;SDS011;104;53.590;10.004;2023-07-20T11:11:32;21.57;;;17.03;;
239;SDS011;104;53.590;10.004;2023-07-20T11:14:00;19.40;;;12.40;;
239;SDS011;104;53.590;10.004;2023-07-20T11:16:32;30.33;;;17.70;;
239;SDS011;104;53.590;10.004;2023-07-20T11:19:00;15.23;;;14.27;;
239;SDS011;104;53.590;10.004;2023-07-20T11:21:27;35.60;;;23.23;;
239;SDS011;104;53.590;10.004;2023-07-20T11:23:55;30.63;;;24.47;;
239;SDS011;104;53.590;10.004;2023-07-20T11:26:24;26.53;;;24.20;;
239;SDS011;104;53.590;10.004;2023-07-20T11:28:51;30.93;;;25.20;;
239;SDS011;104;53.590;10.004;2023-07-20T11:31:18;20.30;;;15.63;;
239;SDS011;104;53.590;10.004;2023-07-20T11:33:46;21.60;;;19.90;;
239;SDS011;104;53.590;10.004;2023-07-20T11:36:13;30.63;;;22.67;;
239;SDS011;104;53.590;10.004;2023-07-20T11:38:41;25.10;;;21.23;;
239;SDS011;104;53.590;10.004;2023-07-20T11:41:09;25.27;;;24.03;;
239;SDS011;104;53.590;10.004;2023-07-20T11:43:38;37.33;;;33.63;;
239;SDS011;104;53.590;10.004;2023-07-20T11:46:07;29.70;;;27.70;;
239;SDS011;104;53.590;10.004;2023-07-20T11:48:34;30.00;;;28.53;;
239;SDS011;104;53.590;10.004;2023-07-20T11:51:02;30.27;;;25.00;;
239;SDS011;104;53.590;10.004;2023-07-20T11:53:30;45.53;;;36.33;;
239;SDS011;104;53.590;10.004;2023-07-20T11:55:58;36.47;;;29.80;;
239;SDS011;104;53.590;10.004;2023-07-20T11:58:27;33.00;;;24.00;;
239;SDS011;104;53.590;10.004;2023-07-20T12:00:56;19.10;;;14.83;;
239;SDS011;104;53.590;10.004;2023-07-20T12:03:24;19.70;;;16.90;;
239;SDS011;104;53.590;10.004;2023-07-20T12:05:51;24.00;;;14.63;;
239;SDS011;104;53.590;10.004;2023-07-20T12:08:19;27.30;;;25.97;;
239;SDS011;104;53.590;10.004;2023-07-20T12:10:48;28.63;;;25.53;;
239;SDS011;104;53.590;10.004;2023-07-20T12:13:15;30.67;;;27.23;;
239;SDS011;104;53.590;10.004;2023-07-20T12:15:43;48.67;;;44.33;;
239;SDS011;104;53.590;10.004;2023-07-20T12:18:12;40.00;;;38.03;;
239;SDS011;104;53.590;10.004;2023-07-20T12:20:39;49.67;;;42.07;;
239;SDS011;104;53.590;10.004;2023-07-20T12:23:09;49.27;;;46.83;;
239;SDS011;104;53.590;10.004;2023-07-20T12:25:37;50.13;;;47.70;;
239;SDS011;104;53.590;10.004;2023-07-20T12:28:05;49.77;;;47.33;;
239;SDS011;104;53.590;10.004;2023-07-20T12:30:32;50.20;;;47.77;;
239;SDS011;104;53.590;10.004;2023-07-20T12:33:00;55.33;;;49.20;;
239;SDS011;104;53.590;10.004;2023-07-20T12:35:29;61.23;;;58.27;;
239;SDS011;104;53.590;10.004;2023-07-20T12:37:57;85.77;;;81.63;;
239;SDS011;104;53.590;10.004;2023-07-20T12:40:24;88.47;;;84.20;;
239;SDS011;104;53.590;10.004;2023-07-20T12:42:52;73.07;;;69.53;;
239;SDS011;104;53.590;10.004;2023-07-20T12:45:19;74.53;;;70.93;;
239;SDS011;104;53.590;10.004;2023-07-20T15:48:55;374.93;;;357.03;;
239;SDS011;104;53.590;10.004;2023-07-20T15:51:22;380.27;;;351.07;;
239;SDS011;104;53.590;10.004;2023-07-20T15:53:50;398.10;;;371.83;;
239;SDS011;104;53.590;10.004;2023-07-20T15:56:17;367.00;;;342.93;;
239;SDS011;104;53.590;10.004;2023-07-20T15:58:44;385.40;;;356.73;;
239;SDS011;104;53.590;10.004;2023-07-20T16:01:11;350.50;;;333.80;;
239;SDS011;104;53.590;10.004;2023-07-20T16:03:38;325.63;;;310.07;;
239;SDS011;104;53.590;10.004;2023-07-20T16:06:07;380.97;;;358.40;;
239;SDS011;104;53.590;10.004;2023-07-20T16:08:34;337.00;;;320.90;;
239;SDS011;104;53.590;10.004;2023-07-20T16:11:02;347.47;;;330.87;;
239;SDS011;104;53.590;10.004;2023-07-20T16:13:29;328.77;;;313.07;;
239;SDS011;104;53.590;10.004;2023-07-20T16:15:56;310.97;;;296.13;;
239;SDS011;104;53.590;10.004;2023-07-20T16:18:24;316.87;;;301.73;;
239;SDS011;104;53.590;10.004;2023-07-20T16:20:51;232.30;;;221.20;;
239;SDS011;104;53.590;10.004;2023-07-20T16:23:20;219.27;;;208.77;;
239;SDS011;104;53.590;10.004;2023-07-20T16:25:47;208.33;;;198.37;;
239;SDS011;104;53.590;10.004;2023-07-20T16:28:14;218.77;;;208.30;;
239;SDS011;104;53.590;10.004;2023-07-20T16:30:41;194.87;;;185.57;;
239;SDS011;104;53.590;10.004;2023-07-20T16:33:09;199.73;;;190.17;;
239;SDS011;104;53.590;10.004;2023-07-20T16:35:36;202.90;;;193.20;;
239;SDS011;104;53.590;10.004;2023-07-20T16:38:03;169.67;;;161.53;;
239;SDS011;104;53.590;10.004;2023-07-20T16:40:32;147.10;;;140.03;;
239;SDS011;104;53.590;10.004;2023-07-20T16:42:59;183.33;;;174.57;;
239;SDS011;104;53.590;10.004;2023-07-20T16:45:27;183.73;;;174.93;;
239;SDS011;104;53.590;10.004;2023-07-20T16:47:54;220.63;;;209.80;;
239;SDS011;104;53.590;10.004;2023-07-20T16:50:22;205.70;;;195.87;;
239;SDS011;104;53.590;10.004;2023-07-20T16:52:49;246.80;;;235.00;;
239;SDS011;104;53.590;10.004;2023-07-20T16:55:16;231.33;;;220.27;;
239;SDS011;104;53.590;10.004;2023-07-20T16:57:45;267.03;;;254.27;;
239;SDS011;104;53.590;10.004;2023-07-20T17:00:13;285.17;;;271.53;;
239;SDS011;104;53.590;10.004;2023-07-20T17:02:41;309.53;;;294.73;;
239;SDS011;104;53.590;10.004;2023-07-20T17:05:09;275.70;;;262.50;;
239;SDS011;104;53.590;10.004;2023-07-20T17:07:36;266.27;;;253.57;;
239;SDS011;104;53.590;10.004;2023-07-20T17:10:03;276.67;;;263.43;;
239;SDS011;104;53.590;10.004;2023-07-20T17:12:32;193.07;;;183.87;;
239;SDS011;104;53.590;10.004;2023-07-20T17:15:00;221.30;;;210.73;;
239;SDS011;104;53.590;10.004;2023-07-20T17:17:27;168.20;;;160.13;;
239;SDS011;104;53.590;10.004;2023-07-20T17:19:57;157.63;;;150.07;;
239;SDS011;104;53.590;10.004;2023-07-20T17:22:24;140.77;;;134.00;;
239;SDS011;104;53.590;10.004;2023-07-20T17:24:55;174.50;;;166.13;;
239;SDS011;104;53.590;10.004;2023-07-20T17:27:22;204.70;;;194.90;;
239;SDS011;104;53.590;10.004;2023-07-20T17:29:49;211.87;;;201.33;;
239;SDS011;104;53.590;10.004;2023-07-20T17:32:18;242.63;;;231.03;;
239;SDS011;104;53.590;10.004;2023-07-20T17:34:48;250.43;;;238.43;;
239;SDS011;104;53.590;10.004;2023-07-20T17:37:15;214.60;;;204.33;;
239;SDS011;104;53.590;10.004;2023-07-20T17:39:43;257.87;;;245.53;;
239;SDS011;104;53.590;10.004;2023-07-20T17:42:11;197.53;;;188.03;;
239;SDS011;104;53.590;10.004;2023-07-20T17:44:38;250.27;;;238.30;;
239;SDS011;104;53.590;10.004;2023-07-20T17:47:05;300.00;;;285.70;;
239;SDS011;104;53.590;10.004;2023-07-20T17:49:34;371.13;;;347.10;;
239;SDS011;104;53.590;10.004;2023-07-20T17:52:04;435.73;;;406.63;;
239;SDS011;104;53.590;10.004;2023-07-20T17:54:34;540.63;;;484.30;;
239;SDS011;104;53.590;10.004;2023-07-20T17:57:01;461.60;;;418.40;;
239;SDS011;104;53.590;10.004;2023-07-20T17:59:28;427.73;;;394.37;;
239;SDS011;104;53.590;10.004;2023-07-20T18:01:56;358.03;;;340.93;;
239;SDS011;104;53.590;10.004;2023-07-20T18:04:23;366.67;;;342.23;;
239;SDS011;104;53.590;10.004;2023-07-20T18:06:52;337.17;;;321.07;;
239;SDS011;104;53.590;10.004;2023-07-20T18:09:19;324.37;;;308.87;;
239;SDS011;104;53.590;10.004;2023-07-20T18:11:46;298.80;;;284.53;;
239;SDS011;104;53.590;10.004;2023-07-20T18:14:14;311.67;;;296.77;;